Time,TemperatureF,DewpointF,PressureIn,WindDirection,WindDirectionDegrees,WindSpeedMPH,WindSpeedGustMPH,Humidity,HourlyPrecipIn,Conditions,Clouds,dailyrainin,SolarRadiationWatts/m^2,SoftwareType,DateUTC
2013-04-14 00:01:00,55.0,24.1,29.68,West,278,0.0,1.0,30,0.00,,,0.00,0,Wunderground v.1.15,2013-04-14 07:01:00,
2013-04-14 00:06:00,54.6,23.7,29.67,West,278,0.0,1.0,30,0.00,,,0.00,0,Wunderground v.1.15,2013-04-14 07:06:00,
2013-04-14 00:11:00,54.5,24.4,29.67,West,278,0.0,0.0,31,0.00,,,0.00,0,Wunderground v.1.15,2013-04-14 07:11:00,
2013-04-14 00:21:00,53.5,24.3,29.67,West,278,0.0,0.0,32,0.00,,,0.00,0,Wunderground v.1.15,2013-04-14 07:21:00,
2013-04-14 00:26:00,53.6,24.4,29.66,West,278,0.0,0.0,32,0.00,,,0.00,0,Wunderground v.1.15,2013-04-14 07:26:00,
2013-04-14 00:31:00,53.8,24.6,29.66,West,278,0.0,0.0,32,0.00,,,0.00,0,Wunderground v.1.15,2013-04-14 07:31:00,
2013-04-14 00:41:00,53.9,25.4,29.66,West,278,0.0,0.0,33,0.00,,,0.00,0,Wunderground v.1.15,2013-04-14 07:41:00,
2013-04-14 00:46:00,54.2,25.7,29.66,West,278,0.0,0.0,33,0.00,,,0.00,0,Wunderground v.1.15,2013-04-14 07:46:00,
2013-04-14 00:56:00,54.0,24.8,29.66,West,278,0.0,0.0,32,0.00,,,0.00,0,Wunderground v.1.15,2013-04-14 07:56:00,
2013-04-14 01:06:00,52.6,25.7,29.66,West,278,0.0,0.0,35,0.00,,,0.00,0,Wunderground v.1.15,2013-04-14 08:06:00,
2013-04-14 01:16:00,51.8,25.0,29.66,West,278,0.0,0.0,35,0.00,,,0.00,0,Wunderground v.1.15,2013-04-14 08:16:00,
2013-04-14 01:21:00,51.1,23.7,29.67,West,278,0.0,0.0,34,0.00,,,0.00,0,Wunderground v.1.15,2013-04-14 08:21:00,
2013-04-14 01:26:00,49.8,23.9,29.67,West,278,0.0,0.0,36,0.00,,,0.00,0,Wunderground v.1.15,2013-04-14 08:26:00,
2013-04-14 01:36:00,48.8,24.3,29.67,West,278,0.0,0.0,38,0.00,,,0.00,0,Wunderground v.1.15,2013-04-14 08:36:00,
2013-04-14 01:41:00,48.6,22.8,29.67,West,278,0.0,0.0,36,0.00,,,0.00,0,Wunderground v.1.15,2013-04-14 08:41:00,
2013-04-14 01:46:00,46.7,22.4,29.69,West,278,0.0,0.0,38,0.00,,,0.00,0,Wunderground v.1.15,2013-04-14 08:46:00,
2013-04-14 01:56:00,47.0,22.0,29.68,West,278,0.0,0.0,37,0.00,,,0.00,0,Wunderground v.1.15,2013-04-14 08:56:00,
2013-04-14 02:01:00,47.0,23.3,29.68,West,278,0.0,0.0,39,0.00,,,0.00,0,Wunderground v.1.15,2013-04-14 09:01:00,
2013-04-14 02:06:00,47.4,23.7,29.68,West,278,0.0,0.0,39,0.00,,,0.00,0,Wunderground v.1.15,2013-04-14 09:06:00,
2013-04-14 02:16:00,48.1,24.3,29.68,West,278,0.0,0.0,39,0.00,,,0.00,0,Wunderground v.1.15,2013-04-14 09:16:00,
2013-04-14 02:21:00,48.2,22.5,29.67,West,278,0.0,0.0,36,0.00,,,0.00,0,Wunderground v.1.15,2013-04-14 09:21:00,
2013-04-14 02:26:00,47.4,23.0,29.68,West,278,0.0,0.0,38,0.00,,,0.00,0,Wunderground v.1.15,2013-04-14 09:26:00,
2013-04-14 02:46:00,46.7,23.6,29.68,West,278,0.0,0.0,40,0.00,,,0.00,0,Wunderground v.1.15,2013-04-14 09:46:00,
2013-04-14 03:06:00,49.5,27.3,29.68,West,278,0.0,0.0,42,0.00,,,0.00,0,Wunderground v.1.15,2013-04-14 10:06:00,
2013-04-14 03:11:00,50.2,25.5,29.68,West,278,0.0,0.0,38,0.00,,,0.00,0,Wunderground v.1.15,2013-04-14 10:11:00,
2013-04-14 03:21:00,47.2,22.9,29.69,West,278,0.0,0.0,38,0.00,,,0.00,0,Wunderground v.1.15,2013-04-14 10:21:00,
2013-04-14 03:31:00,45.0,23.3,29.70,West,278,0.0,0.0,42,0.00,,,0.00,0,Wunderground v.1.15,2013-04-14 10:31:00,
2013-04-14 03:46:00,43.9,21.7,29.70,West,278,0.0,0.0,41,0.00,,,0.00,0,Wunderground v.1.15,2013-04-14 10:46:00,
2013-04-14 03:51:00,42.9,21.9,29.72,West,278,0.0,0.0,43,0.00,,,0.00,0,Wunderground v.1.15,2013-04-14 10:51:00,
2013-04-14 04:01:00,44.0,25.0,29.71,West,278,0.0,0.0,47,0.00,,,0.00,0,Wunderground v.1.15,2013-04-14 11:01:00,
2013-04-14 04:06:00,45.3,25.2,29.72,West,278,0.0,0.0,45,0.00,,,0.00,0,Wunderground v.1.15,2013-04-14 11:06:00,
2013-04-14 04:36:00,40.9,22.2,29.74,West,278,0.0,0.0,47,0.00,,,0.00,0,Wunderground v.1.15,2013-04-14 11:36:00,
2013-04-14 04:41:00,41.4,23.6,29.74,West,278,0.0,0.0,49,0.00,,,0.00,0,Wunderground v.1.15,2013-04-14 11:41:00,
2013-04-14 04:46:00,42.3,21.9,29.73,West,278,0.0,0.0,44,0.00,,,0.00,0,Wunderground v.1.15,2013-04-14 11:46:00,
2013-04-14 04:51:00,40.7,22.5,29.74,West,278,0.0,0.0,48,0.00,,,0.00,0,Wunderground v.1.15,2013-04-14 11:51:00,
2013-04-14 05:01:00,43.1,25.2,29.73,West,278,0.0,0.0,49,0.00,,,0.00,0,Wunderground v.1.15,2013-04-14 12:01:00,
2013-04-14 05:06:00,41.6,22.3,29.75,West,278,0.0,0.0,46,0.00,,,0.00,0,Wunderground v.1.15,2013-04-14 12:06:00,
2013-04-14 05:11:00,41.3,23.6,29.75,West,278,0.0,0.0,49,0.00,,,0.00,0,Wunderground v.1.15,2013-04-14 12:11:00,
2013-04-14 05:21:00,42.3,25.9,29.75,West,278,0.0,0.0,52,0.00,,,0.00,0,Wunderground v.1.15,2013-04-14 12:21:00,
2013-04-14 05:26:00,44.4,28.3,29.74,West,278,0.0,0.0,53,0.00,,,0.00,0,Wunderground v.1.15,2013-04-14 12:26:00,
2013-04-14 05:31:00,46.6,28.9,29.72,West,278,0.0,0.0,50,0.00,,,0.00,0,Wunderground v.1.15,2013-04-14 12:31:00,
2013-04-14 05:46:00,54.0,33.7,29.69,South,184,7.0,11.0,46,0.00,,,0.00,0,Wunderground v.1.15,2013-04-14 12:46:00,
2013-04-14 05:56:00,55.3,34.3,29.68,South,177,7.0,8.0,45,0.00,,,0.00,0,Wunderground v.1.15,2013-04-14 12:56:00,
2013-04-14 06:01:00,55.7,34.7,29.68,South,172,8.0,10.0,45,0.00,,,0.00,0,Wunderground v.1.15,2013-04-14 13:01:00,
2013-04-14 06:11:00,55.6,34.0,29.70,South,185,7.0,11.0,44,0.00,,,0.00,0,Wunderground v.1.15,2013-04-14 13:11:00,
2013-04-14 06:16:00,55.5,33.9,29.70,SSW,194,8.0,11.0,44,0.00,,,0.00,0,Wunderground v.1.15,2013-04-14 13:16:00,
2013-04-14 06:21:00,55.4,34.4,29.70,South,176,9.0,12.0,45,0.00,,,0.00,0,Wunderground v.1.15,2013-04-14 13:21:00,
2013-04-14 06:31:00,56.0,34.9,29.71,South,190,10.0,10.0,45,0.00,,,0.00,0,Wunderground v.1.15,2013-04-14 13:31:00,
2013-04-14 06:36:00,56.1,35.0,29.71,SSE,168,9.0,11.0,45,0.00,,,0.00,7,Wunderground v.1.15,2013-04-14 13:36:00,
2013-04-14 06:41:00,56.3,35.2,29.71,South,176,9.0,9.0,45,0.00,,,0.00,26,Wunderground v.1.15,2013-04-14 13:41:00,
2013-04-14 06:46:00,56.4,34.7,29.71,South,184,10.0,10.0,44,0.00,,,0.00,47,Wunderground v.1.15,2013-04-14 13:46:00,
2013-04-14 06:56:00,57.1,34.8,29.70,South,185,9.0,10.0,43,0.00,,,0.00,88,Wunderground v.1.15,2013-04-14 13:56:00,
2013-04-14 07:01:00,57.2,35.5,29.70,South,177,9.0,9.0,44,0.00,,,0.00,111,Wunderground v.1.15,2013-04-14 14:01:00,
2013-04-14 07:06:00,57.2,35.5,29.72,SSE,168,10.0,10.0,44,0.00,,,0.00,134,Wunderground v.1.15,2013-04-14 14:06:00,
2013-04-14 07:11:00,57.2,36.0,29.72,South,172,10.0,10.0,45,0.00,,,0.00,158,Wunderground v.1.15,2013-04-14 14:11:00,
2013-04-14 07:21:00,58.4,36.6,29.72,South,175,10.0,11.0,44,0.00,,,0.00,195,Wunderground v.1.15,2013-04-14 14:21:00,
2013-04-14 07:41:00,60.3,36.5,29.70,South,182,10.0,16.0,41,0.00,,,0.00,279,Wunderground v.1.15,2013-04-14 14:41:00,
2013-04-14 07:51:00,61.1,35.3,29.70,South,169,12.0,12.0,38,0.00,,,0.00,318,Wunderground v.1.15,2013-04-14 14:51:00,
2013-04-14 07:56:00,61.2,35.4,29.70,SSE,161,11.0,14.0,38,0.00,,,0.00,339,Wunderground v.1.15,2013-04-14 14:56:00,
2013-04-14 08:01:00,61.5,35.0,29.71,South,174,11.0,11.0,37,0.00,,,0.00,360,Wunderground v.1.15,2013-04-14 15:01:00,
2013-04-14 08:16:00,62.8,33.2,29.70,SSW,199,12.0,18.0,33,0.00,,,0.00,425,Wunderground v.1.15,2013-04-14 15:16:00,
2013-04-14 08:26:00,63.4,32.2,29.70,South,169,14.0,18.0,31,0.00,,,0.00,462,Wunderground v.1.15,2013-04-14 15:26:00,
2013-04-14 08:31:00,63.6,31.6,29.69,South,180,13.0,13.0,30,0.00,,,0.00,480,Wunderground v.1.15,2013-04-14 15:31:00,
2013-04-14 08:36:00,64.0,31.9,29.69,South,174,14.0,14.0,30,0.00,,,0.00,501,Wunderground v.1.15,2013-04-14 15:36:00,
2013-04-14 08:41:00,64.1,32.0,29.69,South,184,14.0,14.0,30,0.00,,,0.00,520,Wunderground v.1.15,2013-04-14 15:41:00,
2013-04-14 08:51:00,64.5,30.6,29.69,South,173,13.0,13.0,28,0.00,,,0.00,571,Wunderground v.1.15,2013-04-14 15:51:00,
2013-04-14 09:01:00,65.4,30.5,29.70,SSE,159,14.0,14.0,27,0.00,,,0.00,635,Wunderground v.1.15,2013-04-14 16:01:00,
2013-04-14 09:06:00,65.5,29.7,29.71,South,172,14.0,14.0,26,0.00,,,0.00,652,Wunderground v.1.15,2013-04-14 16:06:00,
2013-04-14 09:11:00,65.6,28.8,29.71,South,188,15.0,18.0,25,0.00,,,0.00,668,Wunderground v.1.15,2013-04-14 16:11:00,
2013-04-14 09:21:00,66.5,30.5,29.71,SE,132,13.0,19.0,26,0.00,,,0.00,703,Wunderground v.1.15,2013-04-14 16:21:00,
2013-04-14 09:36:00,67.3,27.1,29.71,South,179,13.0,13.0,22,0.00,,,0.00,747,Wunderground v.1.15,2013-04-14 16:36:00,
2013-04-14 09:46:00,68.8,28.4,29.69,South,177,12.0,19.0,22,0.00,,,0.00,773,Wunderground v.1.15,2013-04-14 16:46:00,
2013-04-14 09:51:00,68.8,27.2,29.69,SSW,199,12.0,16.0,21,0.00,,,0.00,795,Wunderground v.1.15,2013-04-14 16:51:00,
2013-04-14 09:56:00,68.5,25.8,29.69,South,185,14.0,16.0,20,0.00,,,0.00,807,Wunderground v.1.15,2013-04-14 16:56:00,
2013-04-14 10:06:00,69.5,25.4,29.70,South,178,15.0,20.0,19,0.00,,,0.00,833,Wunderground v.1.15,2013-04-14 17:06:00,
2013-04-14 10:21:00,70.1,25.9,29.70,SSW,199,18.0,24.0,19,0.00,,,0.00,868,Wunderground v.1.15,2013-04-14 17:21:00,
2013-04-14 10:36:00,71.2,26.8,29.69,South,190,17.0,20.0,19,0.00,,,0.00,904,Wunderground v.1.15,2013-04-14 17:36:00,
2013-04-14 10:46:00,71.8,26.0,29.69,South,184,16.0,16.0,18,0.00,,,0.00,921,Wunderground v.1.15,2013-04-14 17:46:00,
2013-04-14 10:56:00,72.4,25.1,29.68,SSW,205,17.0,17.0,17,0.00,,,0.00,939,Wunderground v.1.15,2013-04-14 17:56:00,
2013-04-14 11:06:00,73.6,23.1,29.68,South,177,16.0,19.0,15,0.00,,,0.00,954,Wunderground v.1.15,2013-04-14 18:06:00,
2013-04-14 11:16:00,73.1,21.0,29.68,South,189,17.0,18.0,14,0.00,,,0.00,972,Wunderground v.1.15,2013-04-14 18:16:00,
2013-04-14 11:21:00,73.8,21.6,29.68,SSW,203,16.0,16.0,14,0.00,,,0.00,977,Wunderground v.1.15,2013-04-14 18:21:00,
2013-04-14 11:31:00,73.3,22.8,29.68,SW,215,17.0,17.0,15,0.00,,,0.00,988,Wunderground v.1.15,2013-04-14 18:31:00,
2013-04-14 11:36:00,74.8,24.0,29.67,South,178,16.0,17.0,15,0.00,,,0.00,991,Wunderground v.1.15,2013-04-14 18:36:00,
2013-04-14 11:41:00,74.7,22.3,29.67,SSW,197,14.0,14.0,14,0.00,,,0.00,998,Wunderground v.1.15,2013-04-14 18:41:00,
2013-04-14 11:56:00,75.8,23.2,29.66,SSW,199,13.0,15.0,14,0.00,,,0.00,1007,Wunderground v.1.15,2013-04-14 18:56:00,
2013-04-14 12:06:00,75.6,23.0,29.66,SSW,210,13.0,13.0,14,0.00,,,0.00,1011,Wunderground v.1.15,2013-04-14 19:06:00,
2013-04-14 12:11:00,75.5,24.6,29.66,SW,224,12.0,15.0,15,0.00,,,0.00,1013,Wunderground v.1.15,2013-04-14 19:11:00,
2013-04-14 12:26:00,75.9,26.5,29.65,SSW,207,13.0,13.0,16,0.00,,,0.00,1013,Wunderground v.1.15,2013-04-14 19:26:00,
2013-04-14 12:31:00,76.2,26.7,29.65,WSW,246,11.0,14.0,16,0.00,,,0.00,1013,Wunderground v.1.15,2013-04-14 19:31:00,
2013-04-14 12:41:00,76.7,27.1,29.64,WSW,237,10.0,10.0,16,0.00,,,0.00,1009,Wunderground v.1.15,2013-04-14 19:41:00,
2013-04-14 12:51:00,77.9,28.1,29.64,SW,236,10.0,12.0,16,0.00,,,0.00,1002,Wunderground v.1.15,2013-04-14 19:51:00,
2013-04-14 12:56:00,77.4,26.1,29.64,WSW,244,10.0,12.0,15,0.00,,,0.00,1000,Wunderground v.1.15,2013-04-14 19:56:00,
2013-04-14 13:01:00,77.3,29.1,29.63,SW,214,11.0,11.0,17,0.00,,,0.00,1002,Wunderground v.1.15,2013-04-14 20:01:00,
2013-04-14 13:06:00,78.7,28.7,29.65,SSW,192,10.0,11.0,16,0.00,,,0.00,993,Wunderground v.1.15,2013-04-14 20:06:00,
2013-04-14 13:11:00,77.6,27.8,29.66,SSW,212,11.0,11.0,16,0.00,,,0.00,986,Wunderground v.1.15,2013-04-14 20:11:00,
2013-04-14 13:21:00,78.3,28.4,29.65,West,262,9.0,9.0,16,0.00,,,0.00,979,Wunderground v.1.15,2013-04-14 20:21:00,
2013-04-14 13:26:00,78.5,28.5,29.64,WSW,251,10.0,16.0,16,0.00,,,0.00,974,Wunderground v.1.15,2013-04-14 20:26:00,
2013-04-14 13:36:00,77.7,26.3,29.65,SSW,204,12.0,12.0,15,0.00,,,0.00,960,Wunderground v.1.15,2013-04-14 20:36:00,
2013-04-14 13:51:00,78.7,27.1,29.64,SW,218,9.0,11.0,15,0.00,,,0.00,940,Wunderground v.1.15,2013-04-14 20:51:00,
2013-04-14 14:06:00,78.7,27.1,29.63,South,183,11.0,11.0,15,0.00,,,0.00,909,Wunderground v.1.15,2013-04-14 21:06:00,
2013-04-14 14:11:00,78.3,26.8,29.64,South,187,10.0,10.0,15,0.00,,,0.00,902,Wunderground v.1.15,2013-04-14 21:11:00,
2013-04-14 14:16:00,78.5,27.0,29.63,SW,216,8.0,10.0,15,0.00,,,0.00,891,Wunderground v.1.15,2013-04-14 21:16:00,
2013-04-14 14:26:00,80.0,28.2,29.62,SW,219,8.0,13.0,15,0.00,,,0.00,874,Wunderground v.1.15,2013-04-14 21:26:00,
2013-04-14 14:31:00,78.4,28.5,29.63,SW,214,10.0,10.0,16,0.00,,,0.00,858,Wunderground v.1.15,2013-04-14 21:31:00,
2013-04-14 14:36:00,78.4,28.5,29.63,SW,216,11.0,11.0,16,0.00,,,0.00,846,Wunderground v.1.15,2013-04-14 21:36:00,
2013-04-14 14:41:00,78.6,28.6,29.63,SSW,193,10.0,10.0,16,0.00,,,0.00,835,Wunderground v.1.15,2013-04-14 21:41:00,
2013-04-14 14:46:00,78.6,28.6,29.63,SW,216,10.0,12.0,16,0.00,,,0.00,823,Wunderground v.1.15,2013-04-14 21:46:00,
2013-04-14 14:51:00,78.9,28.9,29.62,SW,216,10.0,12.0,16,0.00,,,0.00,810,Wunderground v.1.15,2013-04-14 21:51:00,
2013-04-14 15:01:00,78.6,28.6,29.62,SW,214,10.0,14.0,16,0.00,,,0.00,780,Wunderground v.1.15,2013-04-14 22:01:00,
2013-04-14 15:06:00,79.3,29.2,29.64,West,275,10.0,14.0,16,0.00,,,0.00,766,Wunderground v.1.15,2013-04-14 22:06:00,
2013-04-14 15:11:00,78.7,30.2,29.64,SW,220,9.0,9.0,17,0.00,,,0.00,754,Wunderground v.1.15,2013-04-14 22:11:00,
2013-04-14 15:21:00,78.2,29.8,29.64,SW,220,8.0,8.0,17,0.00,,,0.00,722,Wunderground v.1.15,2013-04-14 22:21:00,
2013-04-14 15:51:00,78.7,30.2,29.63,SW,216,9.0,11.0,17,0.00,,,0.00,628,Wunderground v.1.15,2013-04-14 22:51:00,
2013-04-14 15:56:00,78.5,30.0,29.63,SSW,199,11.0,15.0,17,0.00,,,0.00,610,Wunderground v.1.15,2013-04-14 22:56:00,
2013-04-14 16:01:00,77.7,30.8,29.63,South,185,11.0,11.0,18,0.00,,,0.00,591,Wunderground v.1.15,2013-04-14 23:01:00,
2013-04-14 16:06:00,77.5,30.6,29.64,SSW,212,10.0,11.0,18,0.00,,,0.00,573,Wunderground v.1.15,2013-04-14 23:06:00,
2013-04-14 16:11:00,77.2,30.4,29.64,South,185,10.0,10.0,18,0.00,,,0.00,555,Wunderground v.1.15,2013-04-14 23:11:00,
2013-04-14 16:16:00,76.9,30.1,29.64,SW,227,9.0,11.0,18,0.00,,,0.00,538,Wunderground v.1.15,2013-04-14 23:16:00,
2013-04-14 16:21:00,77.0,30.2,29.64,SW,217,10.0,10.0,18,0.00,,,0.00,517,Wunderground v.1.15,2013-04-14 23:21:00,
2013-04-14 16:36:00,76.3,31.0,29.65,SW,221,11.0,11.0,19,0.00,,,0.00,464,Wunderground v.1.15,2013-04-14 23:36:00,
2013-04-14 16:41:00,76.2,30.9,29.64,South,182,12.0,13.0,19,0.00,,,0.00,445,Wunderground v.1.15,2013-04-14 23:41:00,
2013-04-14 16:56:00,76.0,30.7,29.64,SW,233,10.0,12.0,19,0.00,,,0.00,388,Wunderground v.1.15,2013-04-14 23:56:00,
2013-04-14 17:01:00,75.7,31.8,29.64,SSW,203,9.0,9.0,20,0.00,,,0.00,371,Wunderground v.1.15,2013-04-15 00:01:00,
2013-04-14 17:31:00,74.2,31.7,29.60,SW,218,11.0,11.0,21,0.00,,,0.00,250,Wunderground v.1.15,2013-04-15 00:31:00,
2013-04-14 17:41:00,73.6,32.4,29.60,SW,220,11.0,11.0,22,0.00,,,0.00,207,Wunderground v.1.15,2013-04-15 00:41:00,
2013-04-14 17:46:00,73.4,32.2,29.61,SSW,210,9.0,11.0,22,0.00,,,0.00,181,Wunderground v.1.15,2013-04-15 00:46:00,
2013-04-14 17:56:00,73.0,33.0,29.61,South,174,10.0,10.0,23,0.00,,,0.00,135,Wunderground v.1.15,2013-04-15 00:56:00,
2013-04-14 18:01:00,72.5,32.6,29.60,South,185,11.0,11.0,23,0.00,,,0.00,114,Wunderground v.1.15,2013-04-15 01:01:00,
2013-04-14 18:16:00,71.4,32.7,29.61,SSW,196,11.0,14.0,24,0.00,,,0.00,60,Wunderground v.1.15,2013-04-15 01:16:00,
2013-04-14 18:21:00,71.1,33.5,29.61,SW,215,10.0,10.0,25,0.00,,,0.00,44,Wunderground v.1.15,2013-04-15 01:21:00,
2013-04-14 18:36:00,70.1,32.6,29.63,SSW,197,9.0,13.0,25,0.00,,,0.00,14,Wunderground v.1.15,2013-04-15 01:36:00,
2013-04-14 18:51:00,69.0,31.7,29.63,South,189,10.0,11.0,25,0.00,,,0.00,0,Wunderground v.1.15,2013-04-15 01:51:00,
2013-04-14 19:01:00,68.1,31.9,29.64,SSW,200,9.0,13.0,26,0.00,,,0.00,0,Wunderground v.1.15,2013-04-15 02:01:00,
2013-04-14 19:06:00,67.9,31.7,29.62,SSW,200,10.0,13.0,26,0.00,,,0.00,0,Wunderground v.1.15,2013-04-15 02:06:00,
2013-04-14 19:16:00,67.4,32.2,29.63,SSW,205,9.0,12.0,27,0.00,,,0.00,0,Wunderground v.1.15,2013-04-15 02:16:00,
2013-04-14 19:21:00,67.3,32.1,29.63,SSW,192,10.0,10.0,27,0.00,,,0.00,0,Wunderground v.1.15,2013-04-15 02:21:00,
2013-04-14 19:26:00,67.2,32.1,29.63,SSW,197,10.0,10.0,27,0.00,,,0.00,0,Wunderground v.1.15,2013-04-15 02:26:00,
2013-04-14 19:31:00,67.0,31.9,29.63,SSW,198,10.0,10.0,27,0.00,,,0.00,0,Wunderground v.1.15,2013-04-15 02:31:00,
2013-04-14 19:51:00,66.3,32.2,29.64,SSW,208,10.0,13.0,28,0.00,,,0.00,0,Wunderground v.1.15,2013-04-15 02:51:00,
2013-04-14 19:56:00,66.1,32.0,29.64,South,187,10.0,14.0,28,0.00,,,0.00,0,Wunderground v.1.15,2013-04-15 02:56:00,
2013-04-14 20:06:00,66.0,31.9,29.63,SSW,196,11.0,12.0,28,0.00,,,0.00,0,Wunderground v.1.15,2013-04-15 03:06:00,
2013-04-14 20:11:00,65.7,31.7,29.63,SW,214,10.0,12.0,28,0.00,,,0.00,0,Wunderground v.1.15,2013-04-15 03:11:00,
2013-04-14 20:21:00,65.5,31.5,29.64,South,185,11.0,11.0,28,0.00,,,0.00,0,Wunderground v.1.15,2013-04-15 03:21:00,
2013-04-14 20:31:00,65.3,32.2,29.64,South,189,11.0,11.0,29,0.00,,,0.00,0,Wunderground v.1.15,2013-04-15 03:31:00,
2013-04-14 20:41:00,64.8,31.8,29.64,South,189,11.0,18.0,29,0.00,,,0.00,0,Wunderground v.1.15,2013-04-15 03:41:00,
2013-04-14 20:46:00,64.7,31.7,29.64,South,178,11.0,18.0,29,0.00,,,0.00,0,Wunderground v.1.15,2013-04-15 03:46:00,
2013-04-14 20:51:00,64.7,31.7,29.64,South,178,11.0,11.0,29,0.00,,,0.00,0,Wunderground v.1.15,2013-04-15 03:51:00,
2013-04-14 21:06:00,64.0,31.9,29.64,SSW,192,9.0,9.0,30,0.00,,,0.00,0,Wunderground v.1.15,2013-04-15 04:06:00,
2013-04-14 21:11:00,64.0,31.9,29.64,South,189,9.0,11.0,30,0.00,,,0.00,0,Wunderground v.1.15,2013-04-15 04:11:00,
2013-04-14 21:16:00,64.3,32.2,29.64,South,191,12.0,15.0,30,0.00,,,0.00,0,Wunderground v.1.15,2013-04-15 04:16:00,
2013-04-14 21:21:00,64.3,33.0,29.64,SSW,200,13.0,14.0,31,0.00,,,0.00,0,Wunderground v.1.15,2013-04-15 04:21:00,
2013-04-14 21:26:00,64.2,32.9,29.64,South,190,12.0,15.0,31,0.00,,,0.00,0,Wunderground v.1.15,2013-04-15 04:26:00,
2013-04-14 21:36:00,64.0,33.5,29.64,SSW,203,13.0,14.0,32,0.00,,,0.00,0,Wunderground v.1.15,2013-04-15 04:36:00,
2013-04-14 21:41:00,63.8,34.1,29.65,South,188,13.0,13.0,33,0.00,,,0.00,0,Wunderground v.1.15,2013-04-15 04:41:00,
2013-04-14 22:11:00,63.1,34.3,29.62,SSW,207,13.0,13.0,34,0.00,,,0.00,0,Wunderground v.1.15,2013-04-15 05:11:00,
2013-04-14 22:26:00,62.6,34.5,29.63,SW,221,13.0,16.0,35,0.00,,,0.00,0,Wunderground v.1.15,2013-04-15 05:26:00,
2013-04-14 22:36:00,62.5,34.5,29.63,SSW,199,16.0,23.0,35,0.00,,,0.00,0,Wunderground v.1.15,2013-04-15 05:36:00,
2013-04-14 22:41:00,62.5,34.5,29.63,South,189,16.0,18.0,35,0.00,,,0.00,0,Wunderground v.1.15,2013-04-15 05:41:00,
2013-04-14 22:51:00,62.1,34.1,29.64,SSW,200,13.0,19.0,35,0.00,,,0.00,0,Wunderground v.1.15,2013-04-15 05:51:00,
2013-04-14 22:56:00,62.0,34.0,29.64,SSW,192,13.0,19.0,35,0.00,,,0.00,0,Wunderground v.1.15,2013-04-15 05:56:00,
2013-04-14 23:01:00,61.8,33.8,29.64,South,172,12.0,14.0,35,0.00,,,0.00,0,Wunderground v.1.15,2013-04-15 06:01:00,
2013-04-14 23:11:00,61.6,33.7,29.63,South,176,11.0,11.0,35,0.00,,,0.00,0,Wunderground v.1.15,2013-04-15 06:11:00,
2013-04-14 23:21:00,61.2,34.0,29.62,South,170,10.0,16.0,36,0.00,,,0.00,0,Wunderground v.1.15,2013-04-15 06:21:00,
2013-04-14 23:31:00,61.3,32.7,29.62,South,183,11.0,14.0,34,0.00,,,0.00,0,Wunderground v.1.15,2013-04-15 06:31:00,
2013-04-14 23:41:00,61.7,33.7,29.62,SSW,207,13.0,13.0,35,0.00,,,0.00,0,Wunderground v.1.15,2013-04-15 06:41:00,
2013-04-14 23:46:00,61.4,33.5,29.62,South,191,11.0,13.0,35,0.00,,,0.00,0,Wunderground v.1.15,2013-04-15 06:46:00,
2013-04-14 23:56:00,61.0,33.8,29.62,SSW,207,11.0,11.0,36,0.00,,,0.00,0,Wunderground v.1.15,2013-04-15 06:56:00,